Ask Your Question

Dirk Thomas's profile - karma

Dirk Thomas's karma change log

10 0 not linking with roscpp ( 2019-07-02 08:18:11 -0500 )

10 0 Ament/Colcon: Share variable between package CMakeLists ( 2019-06-27 11:28:36 -0500 )

10 0 How docking RQT_IMAGE_VIEW into a Dashboard ( 2019-06-22 03:10:43 -0500 )

10 0 install urdfdom from source ( 2019-06-21 07:08:12 -0500 )

15 0 ros distro "N" version not released? ( 2019-06-20 08:48:04 -0500 )

0 -15 ros distro "N" version not released? ( 2019-06-20 08:48:03 -0500 )

15 0 ros distro "N" version not released? ( 2019-06-20 08:48:01 -0500 )

0 -15 ros distro "N" version not released? ( 2019-06-20 08:47:58 -0500 )

15 0 ros distro "N" version not released? ( 2019-06-20 08:47:58 -0500 )

15 0 ros distro "N" version not released? ( 2019-06-20 08:47:58 -0500 )

0 -15 ros distro "N" version not released? ( 2019-06-20 08:47:58 -0500 )

15 0 ros distro "N" version not released? ( 2019-06-20 08:47:56 -0500 )

10 0 ros distro "N" version not released? ( 2019-06-20 08:47:44 -0500 )

15 0 package.xml: use 'replace' tag for non-ROS package ( 2019-06-18 12:56:52 -0500 )

10 0 ROS2 - Does ros1_bridge suppports Indigo ( 2019-06-11 00:58:52 -0500 )

15 0 ROS2 - Does ros1_bridge suppports Indigo ( 2019-06-11 00:58:49 -0500 )

0 -15 ROS2 - Does ros1_bridge suppports Indigo ( 2019-06-11 00:58:47 -0500 )

15 0 Is there a clang-format file for ROS 2? ( 2019-06-10 12:28:46 -0500 )

10 0 Is there a clang-format file for ROS 2? ( 2019-06-10 12:28:43 -0500 )

15 0 ROS2 - Does ros1_bridge suppports Indigo ( 2019-06-08 03:43:42 -0500 )

10 0 Is there a clang-format file for ROS 2? ( 2019-06-07 13:34:03 -0500 )

0 -2 How do you use Python3 and its libraries with ROS Melodic (researched)? ( 2019-06-06 10:52:35 -0500 )

10 0 ROS2 - Does ros1_bridge suppports Indigo ( 2019-06-06 01:22:52 -0500 )

10 0 Redundancy in find_package(COMPONENTS) and catkin_package(CATKIN_DEPENDS)? ( 2019-05-28 19:33:23 -0500 )

10 0 What is the difference between local_setup.bash and setup.bash ( 2019-05-22 13:30:45 -0500 )

10 0 Atom + linter-clang ( 2019-05-21 02:57:31 -0500 )

15 0 Publishing CV2 image message in ROS2 rclpy ( 2019-05-20 18:36:18 -0500 )

10 0 Publishing CV2 image message in ROS2 rclpy ( 2019-05-20 18:35:26 -0500 )

0 -10 Publishing CV2 image message in ROS2 rclpy ( 2019-05-20 18:35:25 -0500 )

10 0 Publishing CV2 image message in ROS2 rclpy ( 2019-05-20 11:43:54 -0500 )

15 0 groovy script failed in Krel_reconfigura-jobs ( 2019-05-20 02:37:30 -0500 )

15 0 rqt based UI and different screen resolutions ( 2019-05-20 02:36:29 -0500 )

15 0 Where is the message definition stored? ( 2019-05-20 02:09:55 -0500 )

15 0 [ROS2] using native RTI dds *.idl files with ROS2 ( 2019-05-20 02:09:45 -0500 )

15 0 Confused about publishing msgs in a synchronous way ( 2019-05-20 02:01:06 -0500 )

15 0 Bug in ros::NodeHandle::searchParam()? ( 2019-05-20 01:56:59 -0500 )

10 0 how to make ros cpplint use a relative path for header guard check ( 2019-05-20 01:30:04 -0500 )

15 0 how to make ros cpplint use a relative path for header guard check ( 2019-05-20 01:30:01 -0500 )

10 0 How to visualize/read string messages from Rosbag ( 2019-05-20 01:15:06 -0500 )

15 0 Use identical package.xml for ROS1 and ROS2 pkgs ( 2019-05-20 01:14:49 -0500 )

10 0 Ubuntu18 and ROS melodic catkin error: ImportError: No module named terminal_color ( 2019-05-16 07:10:20 -0500 )

15 0 ROS2 Services in Python ( 2019-05-09 11:44:23 -0500 )

0 -15 ROS2 Services in Python ( 2019-05-09 11:44:22 -0500 )

15 0 ROS2 Services in Python ( 2019-05-09 11:44:21 -0500 )

10 0 ROS2 Services in Python ( 2019-05-09 11:43:57 -0500 )

10 0 ROS2 colcon build on windows no error message shown when it failed ( 2019-05-08 23:56:36 -0500 )

0 -10 ROS2 colcon build on windows no error message shown when it failed ( 2019-05-08 23:56:34 -0500 )

10 0 ROS2 colcon build on windows no error message shown when it failed ( 2019-05-08 23:56:32 -0500 )

15 0 ROS2 colcon build on windows no error message shown when it failed ( 2019-05-08 23:56:17 -0500 )

10 0 ROS2 Services in Python ( 2019-05-08 19:31:49 -0500 )

10 0 git strategy for catkin and package folders ( 2019-05-08 09:58:25 -0500 )

10 0 catkin_make's option for optimization ( 2019-05-07 13:40:41 -0500 )

15 0 catkin_make require build of package without dependencies ( 2019-05-06 19:59:34 -0500 )

10 0 catkin_make require build of package without dependencies ( 2019-05-06 19:58:01 -0500 )

10 0 [ros2] ros2 run [package] [executable] cannot find executable ( 2019-05-02 19:55:31 -0500 )

10 0 how to define ROS kinetic to use python3 instead of python2.7? ( 2019-04-30 11:25:11 -0500 )

10 0 What is the correct layout of Python code when using --symlink-install in ROS 2? ( 2019-04-28 17:35:18 -0500 )

10 0 How to include generated message .h file into C++ (ROS 2)? ( 2019-04-26 20:14:48 -0500 )

10 0 Ubuntu18 and ROS melodic catkin error: ImportError: No module named terminal_color ( 2019-04-24 11:17:39 -0500 )

10 0 catkin_make fails: Invoking "make cmake_check_build_system" failed ( 2019-04-18 12:54:24 -0500 )

0 -10 catkin_make fails: Invoking "make cmake_check_build_system" failed ( 2019-04-18 12:54:19 -0500 )

10 0 catkin_make fails: Invoking "make cmake_check_build_system" failed ( 2019-04-18 12:54:16 -0500 )

15 0 ROS2 serious memory leak when using timer? ( 2019-04-17 16:53:27 -0500 )

0 -2 ROS2 error creating a service server as a member function? ( 2019-04-16 14:36:40 -0500 )

0 -2 cmake failed catkin_pkg ( 2019-04-15 11:18:30 -0500 )

0 -2 cmake failed catkin_pkg ( 2019-04-15 11:18:27 -0500 )

0 -2 cmake failed catkin_pkg ( 2019-04-15 11:18:10 -0500 )

15 0 Is it possible to self-compile ROS2 on an unsupported OS? ( 2019-04-12 16:30:57 -0500 )

10 0 Is it possible to self-compile ROS2 on an unsupported OS? ( 2019-04-12 15:21:23 -0500 )

0 -10 Rosdep experienced an internal error... ( 2019-04-12 06:48:25 -0500 )

10 0 Rosdep experienced an internal error... ( 2019-04-12 06:48:24 -0500 )

0 -10 Rosdep experienced an internal error... ( 2019-04-12 06:48:23 -0500 )

10 0 Rosdep experienced an internal error... ( 2019-04-12 06:48:17 -0500 )

0 -10 Rosdep experienced an internal error... ( 2019-04-12 06:48:14 -0500 )

10 0 Rosdep experienced an internal error... ( 2019-04-12 06:48:14 -0500 )

0 -10 Rosdep experienced an internal error... ( 2019-04-12 06:48:13 -0500 )

10 0 Rosdep experienced an internal error... ( 2019-04-12 06:48:12 -0500 )

10 0 ros2_ws build fail ( 2019-04-11 13:22:18 -0500 )

0 -2 catkin-pkg distribution was not found ( 2019-04-10 13:08:04 -0500 )

2 0 Build failed at rosidl_generator_c package ( 2019-04-09 12:31:41 -0500 )

10 0 Build failed at rosidl_generator_c package ( 2019-04-08 06:45:45 -0500 )

15 0 Using multiple library versions in catkin ( 2019-04-08 01:12:00 -0500 )

15 0 rospack find throws exception error ( 2019-04-08 01:07:00 -0500 )

15 0 When will be ROS2 fully realtime compatible? ( 2019-04-07 22:38:56 -0500 )

15 0 [ROS2] colcon build not getting subfolders ( 2019-04-03 05:44:41 -0500 )

10 0 [ROS2] colcon build not getting subfolders ( 2019-04-02 04:11:29 -0500 )

10 0 Build catkin packages with colcon ( 2019-03-21 04:51:54 -0500 )

15 0 Build catkin packages with colcon ( 2019-03-21 04:51:47 -0500 )

10 0 Publisher and Sbuscriber queues and their sizes (roscpp) ( 2019-03-20 19:50:13 -0500 )

10 0 Determine path to executable ( 2019-03-18 07:09:54 -0500 )

15 0 Disable generation of Javascript, Lisp, EusLisp messages ( 2019-03-14 19:07:54 -0500 )

10 0 Disable generation of Javascript, Lisp, EusLisp messages ( 2019-03-14 19:07:52 -0500 )

10 0 How to properly set AMENT_PREFIX_PATH? ( 2019-03-11 13:17:31 -0500 )

0 -10 Custom service with custom message ( 2019-03-07 19:29:20 -0500 )

10 0 Custom service with custom message ( 2019-03-07 19:15:04 -0500 )

10 0 package.xml: use 'replace' tag for non-ROS package ( 2019-03-07 14:50:03 -0500 )

15 0 ros2.Crystal when Using rclcpp::executors::MultiThreadedExecutor::spin, if I use ctrl+c it will not shutdown the script ( 2019-03-06 23:34:00 -0500 )

10 0 ros2.Crystal when Using rclcpp::executors::MultiThreadedExecutor::spin, if I use ctrl+c it will not shutdown the script ( 2019-03-06 23:33:59 -0500 )

15 0 ament_cmake_clang_format fails to find ament_clang_format package ( 2019-03-05 14:29:49 -0500 )

10 0 Fail at ROS2 IDL generation ( 2019-03-04 14:15:38 -0500 )